createdAt,value
2023-03-10T00:00:33.721Z,10.36
2023-03-10T00:03:01.313Z,10.32
2023-03-10T00:05:29.075Z,10.33
2023-03-10T00:07:56.681Z,10.30
2023-03-10T00:10:24.741Z,10.27
2023-03-10T00:12:52.397Z,10.25
2023-03-10T00:15:21.306Z,10.28
2023-03-10T00:17:50.074Z,10.31
2023-03-10T00:20:17.675Z,10.35
2023-03-10T00:22:45.312Z,10.37
2023-03-10T00:25:12.917Z,10.34
2023-03-10T00:27:40.543Z,10.39
2023-03-10T00:30:09.597Z,10.36
2023-03-10T00:32:38.779Z,10.38
2023-03-10T00:35:07.358Z,10.35
2023-03-10T00:37:38.108Z,10.37
2023-03-10T00:40:09.271Z,10.38
2023-03-10T00:42:36.863Z,10.36
2023-03-10T00:45:05.017Z,10.34
2023-03-10T00:47:32.619Z,10.32
2023-03-10T00:50:01.576Z,10.30
2023-03-10T00:52:32.768Z,10.23
2023-03-10T00:55:00.414Z,10.17
2023-03-10T00:57:28.420Z,10.16
2023-03-10T00:59:56.054Z,10.13
2023-03-10T01:02:23.663Z,10.10
2023-03-10T01:04:51.204Z,10.12
2023-03-10T01:07:20.120Z,10.07
2023-03-10T01:09:50.881Z,10.05
2023-03-10T01:12:19.006Z,9.96
2023-03-10T01:14:46.534Z,9.90
2023-03-10T01:17:16.100Z,9.85
2023-03-10T01:19:43.733Z,9.87
2023-03-10T01:22:11.297Z,9.93
2023-03-10T01:24:40.299Z,9.91
2023-03-10T01:27:07.912Z,9.77
2023-03-10T01:29:35.478Z,9.73
2023-03-10T01:32:03.117Z,9.73
2023-03-10T01:34:31.857Z,9.72
2023-03-10T01:36:59.606Z,9.62
2023-03-10T01:39:27.347Z,9.57
2023-03-10T01:41:56.258Z,9.58
2023-03-10T01:44:23.837Z,9.55
2023-03-10T01:46:54.831Z,9.56
2023-03-10T01:49:41.464Z,9.51
2023-03-10T01:52:13.626Z,9.51
2023-03-10T01:54:49.370Z,9.51
2023-03-10T01:57:22.202Z,9.55
2023-03-10T01:59:51.060Z,9.57
2023-03-10T02:02:19.360Z,9.56
2023-03-10T02:04:49.464Z,9.61
2023-03-10T02:07:26.373Z,9.57
2023-03-10T02:09:56.983Z,9.62
2023-03-10T02:12:25.912Z,9.63
2023-03-10T02:14:54.273Z,9.65
2023-03-10T02:17:25.321Z,9.66
2023-03-10T02:20:10.790Z,9.73
2023-03-10T02:22:39.898Z,9.79
2023-03-10T02:25:19.673Z,9.87
2023-03-10T02:27:48.712Z,9.96
2023-03-10T02:30:21.255Z,10.01
2023-03-10T02:32:51.893Z,10.10
2023-03-10T02:35:20.117Z,10.13
2023-03-10T02:37:53.781Z,10.16
2023-03-10T02:40:34.619Z,10.22
2023-03-10T02:43:17.799Z,10.38
2023-03-10T02:45:48.236Z,10.43
2023-03-10T02:48:25.401Z,10.42
2023-03-10T02:50:54.733Z,10.40
2023-03-10T02:53:24.840Z,10.42
2023-03-10T02:55:53.363Z,10.49
2023-03-10T02:58:24.585Z,10.50
2023-03-10T03:00:52.566Z,10.61
2023-03-10T03:03:23.236Z,10.61
2023-03-10T03:05:52.279Z,10.64
2023-03-10T03:08:21.055Z,10.61
2023-03-10T03:10:48.992Z,10.61
2023-03-10T03:13:16.752Z,10.57
2023-03-10T03:15:45.800Z,10.64
2023-03-10T03:18:13.810Z,10.59
2023-03-10T03:20:42.249Z,10.62
2023-03-10T03:23:12.530Z,10.61
2023-03-10T03:25:42.041Z,10.86
2023-03-10T03:28:13.136Z,10.88
2023-03-10T03:30:41.885Z,10.91
2023-03-10T03:33:11.027Z,11.00
2023-03-10T03:35:41.048Z,11.06
2023-03-10T03:38:08.952Z,11.06
2023-03-10T03:40:38.598Z,11.06
2023-03-10T03:43:07.798Z,11.15
2023-03-10T03:45:36.004Z,11.17
2023-03-10T03:48:03.652Z,11.24
2023-03-10T03:50:35.177Z,11.30
2023-03-10T03:53:09.204Z,11.31
2023-03-10T03:55:36.809Z,11.33
2023-03-10T03:58:04.724Z,11.37
2023-03-10T04:00:34.124Z,11.32
2023-03-10T04:03:05.682Z,11.35
2023-03-10T04:05:35.640Z,11.36
2023-03-10T04:08:03.540Z,11.34
2023-03-10T04:10:31.551Z,11.41
2023-03-10T04:13:00.530Z,11.37
2023-03-10T04:15:28.750Z,11.45
2023-03-10T04:17:57.787Z,11.47
2023-03-10T04:20:25.841Z,11.41
2023-03-10T04:22:55.189Z,11.38
2023-03-10T04:25:28.869Z,11.37
2023-03-10T04:27:58.360Z,11.46
2023-03-10T04:30:29.559Z,11.54
2023-03-10T04:33:00.255Z,11.54
2023-03-10T04:35:32.656Z,11.46
2023-03-10T04:38:02.542Z,11.39
2023-03-10T04:40:30.363Z,11.33
2023-03-10T04:42:58.211Z,11.23
2023-03-10T04:45:25.893Z,11.18
2023-03-10T04:47:54.646Z,11.09
2023-03-10T04:50:22.420Z,11.02
2023-03-10T04:52:51.628Z,11.00
2023-03-10T04:55:25.096Z,10.95
2023-03-10T04:57:52.913Z,10.86
2023-03-10T05:00:20.995Z,10.84
2023-03-10T05:02:48.997Z,10.85
2023-03-10T05:05:16.733Z,10.79
2023-03-10T05:07:46.585Z,10.78
2023-03-10T05:10:14.262Z,10.77
2023-03-10T05:12:43.547Z,10.69
2023-03-10T05:15:12.927Z,10.67
2023-03-10T05:17:40.567Z,10.64
2023-03-10T05:20:10.099Z,10.65
2023-03-10T05:22:39.360Z,10.62
2023-03-10T05:25:10.714Z,10.58
2023-03-10T05:27:39.994Z,10.58
2023-03-10T05:30:12.236Z,10.52
2023-03-10T05:32:39.941Z,10.50
2023-03-10T05:35:08.337Z,10.49
2023-03-10T05:37:39.621Z,10.48
2023-03-10T05:40:10.208Z,10.52
2023-03-10T05:42:37.922Z,10.57
2023-03-10T05:45:06.461Z,10.57
2023-03-10T05:47:35.619Z,10.59
2023-03-10T05:50:04.630Z,10.63
2023-03-10T05:52:32.261Z,10.67
2023-03-10T05:54:59.880Z,10.92
2023-03-10T05:57:27.967Z,10.94
2023-03-10T05:59:55.601Z,11.04
2023-03-10T06:02:23.942Z,11.09
2023-03-10T06:04:53.003Z,11.08
2023-03-10T06:07:20.606Z,11.08
2023-03-10T06:09:48.222Z,11.09
2023-03-10T06:12:15.845Z,11.16
2023-03-10T06:14:43.511Z,11.15
2023-03-10T06:17:11.166Z,11.17
2023-03-10T06:19:38.787Z,11.14
2023-03-10T06:22:07.745Z,11.11
2023-03-10T06:24:35.277Z,11.12
2023-03-10T06:27:03.114Z,11.13
2023-03-10T06:29:30.748Z,11.12
2023-03-10T06:31:58.456Z,11.07
2023-03-10T06:34:26.247Z,11.04
2023-03-10T06:36:55.815Z,11.00
2023-03-10T06:39:28.748Z,10.99
2023-03-10T06:41:59.175Z,10.96
2023-03-10T06:44:26.789Z,10.93
2023-03-10T06:46:54.444Z,10.93
2023-03-10T06:49:22.014Z,10.93
2023-03-10T06:51:49.586Z,10.92
2023-03-10T06:54:17.182Z,10.89
2023-03-10T06:56:46.081Z,10.87
2023-03-10T06:59:13.684Z,10.87
2023-03-10T07:01:41.643Z,10.89
2023-03-10T07:04:09.502Z,10.91
2023-03-10T07:06:37.097Z,10.94
2023-03-10T07:09:05.160Z,11.08
2023-03-10T07:11:32.804Z,11.15
2023-03-10T07:14:01.823Z,11.26
2023-03-10T07:16:29.448Z,11.33
2023-03-10T07:18:56.983Z,11.49
2023-03-10T07:21:24.654Z,11.68
2023-03-10T07:23:52.482Z,11.76
2023-03-10T07:26:20.365Z,11.77
2023-03-10T07:28:48.706Z,11.65
2023-03-10T07:31:18.358Z,11.39
2023-03-10T07:33:46.004Z,11.01
2023-03-10T07:36:16.514Z,10.96
2023-03-10T07:38:44.283Z,10.53
2023-03-10T07:41:15.520Z,10.32
2023-03-10T07:43:43.142Z,10.08
2023-03-10T07:46:13.448Z,9.85
2023-03-10T07:48:42.751Z,9.62
2023-03-10T07:51:10.736Z,9.27
2023-03-10T07:53:38.399Z,9.17
2023-03-10T07:56:07.122Z,8.92
2023-03-10T07:58:35.719Z,8.70
2023-03-10T08:01:04.521Z,8.55
2023-03-10T08:03:34.109Z,8.29
2023-03-10T08:06:05.431Z,8.20
2023-03-10T08:08:33.090Z,8.18
2023-03-10T08:11:03.736Z,8.21
2023-03-10T08:13:31.948Z,8.24
2023-03-10T08:16:00.666Z,8.31
2023-03-10T08:18:29.448Z,8.29
2023-03-10T08:20:57.792Z,8.38
2023-03-10T08:23:27.134Z,8.55
2023-03-10T08:25:54.721Z,8.72
2023-03-10T08:28:22.479Z,8.80
2023-03-10T08:31:03.701Z,8.96
2023-03-10T08:33:32.171Z,9.00
2023-03-10T08:36:05.369Z,9.11
2023-03-10T08:38:34.676Z,9.04
2023-03-10T08:41:09.962Z,9.10
2023-03-10T08:43:37.861Z,9.19
2023-03-10T08:46:08.490Z,9.15
2023-03-10T08:48:36.454Z,9.15
2023-03-10T08:51:04.532Z,9.22
2023-03-10T08:53:33.102Z,9.27
2023-03-10T08:56:02.028Z,9.39
2023-03-10T08:58:29.829Z,9.41
2023-03-10T09:00:57.432Z,9.43
2023-03-10T09:03:25.191Z,9.51
2023-03-10T09:05:53.464Z,9.55
2023-03-10T09:08:21.070Z,9.59
2023-03-10T09:10:49.276Z,9.55
2023-03-10T09:13:18.208Z,9.51
2023-03-10T09:15:45.907Z,9.57
2023-03-10T09:18:15.221Z,9.67
2023-03-10T09:20:43.302Z,9.84
2023-03-10T09:23:12.787Z,10.00
2023-03-10T09:25:41.175Z,10.03
2023-03-10T09:28:09.241Z,10.24
2023-03-10T09:30:40.315Z,10.44
2023-03-10T09:33:12.015Z,10.47
2023-03-10T09:35:41.751Z,10.44
2023-03-10T09:38:13.231Z,10.63
2023-03-10T09:40:45.597Z,10.58
2023-03-10T09:43:16.946Z,10.65
2023-03-10T09:45:51.428Z,10.55
2023-03-10T09:48:47.449Z,10.66
2023-03-10T09:51:18.070Z,10.69
2023-03-10T09:53:55.773Z,10.68
2023-03-10T09:56:29.891Z,10.70
2023-03-10T09:59:02.478Z,10.71
2023-03-10T10:01:33.371Z,10.64
2023-03-10T10:04:06.175Z,10.53
2023-03-10T10:06:36.149Z,10.47
2023-03-10T10:09:07.086Z,10.62
2023-03-10T10:11:36.472Z,10.47
2023-03-10T10:14:27.807Z,10.55
2023-03-10T10:17:04.280Z,10.56
2023-03-10T10:19:34.366Z,10.43
2023-03-10T10:22:11.357Z,10.50
2023-03-10T10:24:40.506Z,10.45
2023-03-10T10:27:08.107Z,10.73
2023-03-10T10:29:37.283Z,10.86
2023-03-10T10:32:11.576Z,10.87
2023-03-10T10:34:40.687Z,10.95
2023-03-10T10:37:28.547Z,11.24
2023-03-10T10:39:58.718Z,11.16
2023-03-10T10:42:28.054Z,11.37
2023-03-10T10:44:57.729Z,11.40
2023-03-10T10:47:30.196Z,11.58
2023-03-10T10:50:18.106Z,11.81
2023-03-10T10:52:48.662Z,11.66
2023-03-10T10:55:28.592Z,11.69
2023-03-10T10:58:01.300Z,11.61
2023-03-10T11:00:32.353Z,11.59
2023-03-10T11:03:02.023Z,11.76
2023-03-10T11:05:35.922Z,11.29
2023-03-10T11:08:19.153Z,11.16
2023-03-10T11:10:55.965Z,10.92
2023-03-10T11:13:30.270Z,10.91
2023-03-10T11:16:05.069Z,10.60
2023-03-10T11:18:37.521Z,10.62
2023-03-10T11:21:12.276Z,10.54
2023-03-10T11:23:46.369Z,10.59
2023-03-10T11:26:22.998Z,10.64
2023-03-10T11:28:55.927Z,10.66
2023-03-10T11:31:37.511Z,10.76
2023-03-10T11:34:20.038Z,10.92
2023-03-10T11:36:57.496Z,10.88
2023-03-10T11:39:36.660Z,10.80
2023-03-10T11:42:10.669Z,10.77
2023-03-10T11:44:42.335Z,10.81
2023-03-10T11:47:20.711Z,10.76
2023-03-10T11:49:55.502Z,10.89
2023-03-10T11:52:25.834Z,11.12
2023-03-10T11:55:01.759Z,11.34
2023-03-10T11:57:34.292Z,11.59
2023-03-10T12:00:07.757Z,11.30
2023-03-10T12:02:37.673Z,11.37
2023-03-10T12:05:14.514Z,11.47
2023-03-10T12:07:45.357Z,11.24
2023-03-10T12:10:17.207Z,11.17
2023-03-10T12:12:46.981Z,11.14
2023-03-10T12:15:20.658Z,11.11
2023-03-10T12:17:49.764Z,11.13
2023-03-10T12:20:29.093Z,11.28
2023-03-10T12:22:57.802Z,11.07
2023-03-10T12:25:47.792Z,10.92
2023-03-10T12:28:24.190Z,11.04
2023-03-10T12:30:56.354Z,11.01
2023-03-10T12:33:42.486Z,10.93
2023-03-10T12:36:15.073Z,10.79
2023-03-10T12:38:46.364Z,10.75
2023-03-10T12:41:15.492Z,10.58
2023-03-10T12:43:54.928Z,10.54
2023-03-10T12:46:27.977Z,10.59
2023-03-10T12:49:07.953Z,10.40
2023-03-10T12:51:43.873Z,10.19
2023-03-10T12:54:34.462Z,10.10
2023-03-10T12:57:09.378Z,9.68
2023-03-10T12:59:42.056Z,9.67
2023-03-10T13:02:24.684Z,9.47
2023-03-10T13:04:59.744Z,9.42
2023-03-10T13:07:29.596Z,9.46
2023-03-10T13:09:58.928Z,9.48
2023-03-10T13:12:31.396Z,9.49
2023-03-10T13:15:00.918Z,9.51
2023-03-10T13:17:30.813Z,9.43
2023-03-10T13:20:00.906Z,9.45
2023-03-10T13:22:30.485Z,9.49
2023-03-10T13:25:00.885Z,9.36
2023-03-10T13:27:31.155Z,9.31
2023-03-10T13:30:01.786Z,9.32
2023-03-10T13:32:30.424Z,9.30
2023-03-10T13:34:59.182Z,9.39
2023-03-10T13:37:26.882Z,9.33
2023-03-10T13:40:08.504Z,9.44
2023-03-10T13:42:43.681Z,9.27
2023-03-10T13:45:22.857Z,9.20
2023-03-10T13:47:51.409Z,9.12
2023-03-10T13:50:19.247Z,8.95
2023-03-10T13:52:54.627Z,8.91
2023-03-10T13:55:24.096Z,8.88
2023-03-10T13:57:52.802Z,8.90
2023-03-10T14:00:22.705Z,8.88
2023-03-10T14:02:51.910Z,8.93
2023-03-10T14:05:39.898Z,8.98
2023-03-10T14:08:17.986Z,8.97
2023-03-10T14:10:46.912Z,9.02
2023-03-10T14:13:43.881Z,9.00
2023-03-10T14:16:12.277Z,8.83
2023-03-10T14:18:41.500Z,8.79
2023-03-10T14:21:33.489Z,8.78
2023-03-10T14:24:11.632Z,8.77
2023-03-10T14:26:41.015Z,8.81
2023-03-10T14:29:14.913Z,8.82
2023-03-10T14:31:42.532Z,8.77
2023-03-10T14:34:13.147Z,8.81
2023-03-10T14:36:40.730Z,8.79
2023-03-10T14:39:09.491Z,8.78
2023-03-10T14:41:37.418Z,8.82
2023-03-10T14:44:06.564Z,8.84
2023-03-10T14:46:35.102Z,8.83
2023-03-10T14:49:03.013Z,8.81
2023-03-10T14:51:35.977Z,8.79
2023-03-10T14:54:04.000Z,8.77
2023-03-10T14:56:32.731Z,8.72
2023-03-10T14:59:02.966Z,8.69
2023-03-10T15:01:32.432Z,8.69
2023-03-10T15:04:00.047Z,8.68
2023-03-10T15:06:27.855Z,8.66
2023-03-10T15:08:55.414Z,8.65
2023-03-10T15:11:36.010Z,8.62
2023-03-10T15:14:05.729Z,8.63
2023-03-10T15:16:34.612Z,8.64
2023-03-10T15:19:02.186Z,8.57
2023-03-10T15:21:29.780Z,8.55
2023-03-10T15:23:57.317Z,8.58
2023-03-10T15:26:24.891Z,8.58
2023-03-10T15:28:52.514Z,8.61
2023-03-10T15:31:20.133Z,8.63
2023-03-10T15:33:49.023Z,8.68
2023-03-10T15:36:16.621Z,8.69
2023-03-10T15:38:44.302Z,8.63
2023-03-10T15:41:13.015Z,8.71
2023-03-10T15:43:40.971Z,8.62
2023-03-10T15:46:09.485Z,8.54
2023-03-10T15:48:37.126Z,8.33
2023-03-10T15:51:10.666Z,8.23
2023-03-10T15:53:38.371Z,8.09
2023-03-10T15:56:07.449Z,7.98
2023-03-10T15:58:35.262Z,8.02
2023-03-10T16:01:07.677Z,8.11
2023-03-10T16:03:36.606Z,8.24
2023-03-10T16:06:04.724Z,8.34
2023-03-10T16:08:37.332Z,8.34
2023-03-10T16:11:06.315Z,8.48
2023-03-10T16:13:33.880Z,8.66
2023-03-10T16:16:05.501Z,8.73
2023-03-10T16:18:33.165Z,8.80
2023-03-10T16:21:02.107Z,8.72
2023-03-10T16:23:32.167Z,8.77
2023-03-10T16:26:13.206Z,8.74
2023-03-10T16:28:42.825Z,8.76
2023-03-10T16:31:11.742Z,8.76
2023-03-10T16:33:39.677Z,8.71
2023-03-10T16:36:09.442Z,8.62
2023-03-10T16:38:37.467Z,8.69
2023-03-10T16:41:05.381Z,8.59
2023-03-10T16:43:34.421Z,8.57
2023-03-10T16:46:08.677Z,8.46
2023-03-10T16:48:39.046Z,8.37
2023-03-10T16:51:19.951Z,8.26
2023-03-10T16:53:47.907Z,8.19
2023-03-10T16:56:15.899Z,8.15
2023-03-10T16:58:44.996Z,8.20
2023-03-10T17:01:12.694Z,8.13
2023-03-10T17:03:40.563Z,8.17
2023-03-10T17:06:10.170Z,8.15
2023-03-10T17:08:38.609Z,8.04
2023-03-10T17:11:07.480Z,7.99
2023-03-10T17:13:36.555Z,7.95
2023-03-10T17:16:12.380Z,7.90
2023-03-10T17:18:39.985Z,7.90
2023-03-10T17:21:12.670Z,7.93
2023-03-10T17:23:40.316Z,7.73
2023-03-10T17:26:09.222Z,7.49
2023-03-10T17:28:37.041Z,7.00
2023-03-10T17:31:10.340Z,6.46
2023-03-10T17:33:37.858Z,6.14
2023-03-10T17:36:06.465Z,5.90
2023-03-10T17:38:34.445Z,5.91
2023-03-10T17:41:05.624Z,5.93
2023-03-10T17:43:34.805Z,6.08
2023-03-10T17:46:06.146Z,6.16
2023-03-10T17:48:35.593Z,6.21
2023-03-10T17:51:04.026Z,6.24
2023-03-10T17:53:32.315Z,6.27
2023-03-10T17:56:04.222Z,6.36
2023-03-10T17:58:31.898Z,6.44
2023-03-10T18:00:59.548Z,6.45
2023-03-10T18:03:27.143Z,6.46
2023-03-10T18:05:56.106Z,6.49
2023-03-10T18:08:23.650Z,6.55
2023-03-10T18:11:00.342Z,6.59
2023-03-10T18:13:27.985Z,6.60
2023-03-10T18:15:55.639Z,6.61
2023-03-10T18:18:23.326Z,6.63
2023-03-10T18:20:51.105Z,6.71
2023-03-10T18:23:22.023Z,6.70
2023-03-10T18:25:49.998Z,6.69
2023-03-10T18:28:19.154Z,6.70
2023-03-10T18:30:48.535Z,6.69
2023-03-10T18:33:16.325Z,6.70
2023-03-10T18:35:46.048Z,6.58
2023-03-10T18:38:14.398Z,6.48
2023-03-10T18:40:43.650Z,6.44
2023-03-10T18:43:11.317Z,6.45
2023-03-10T18:45:40.720Z,6.45
2023-03-10T18:48:08.513Z,6.43
2023-03-10T18:50:36.167Z,6.41
2023-03-10T18:53:03.687Z,6.30
2023-03-10T18:55:31.284Z,6.10
2023-03-10T18:58:00.173Z,5.91
2023-03-10T19:00:28.194Z,5.80
2023-03-10T19:02:55.878Z,5.70
2023-03-10T19:05:23.586Z,5.72
2023-03-10T19:07:51.204Z,5.71
2023-03-10T19:10:20.042Z,5.79
2023-03-10T19:12:47.694Z,5.78
2023-03-10T19:15:18.566Z,5.70
2023-03-10T19:17:46.190Z,5.71
2023-03-10T19:20:15.621Z,5.76
2023-03-10T19:22:44.177Z,5.74
2023-03-10T19:25:12.982Z,5.75
2023-03-10T19:27:40.688Z,5.78
2023-03-10T19:30:11.432Z,5.79
2023-03-10T19:32:40.799Z,5.88
2023-03-10T19:35:09.627Z,5.86
2023-03-10T19:37:38.438Z,5.63
2023-03-10T19:40:08.826Z,5.39
2023-03-10T19:42:38.733Z,5.14
2023-03-10T19:45:08.094Z,4.88
2023-03-10T19:47:35.636Z,4.82
2023-03-10T19:50:05.782Z,4.77
2023-03-10T19:52:33.607Z,4.78
2023-03-10T19:55:01.377Z,4.87
2023-03-10T19:57:28.999Z,4.88
2023-03-10T19:59:56.632Z,4.96
2023-03-10T20:02:24.737Z,5.00
2023-03-10T20:04:52.497Z,4.95
2023-03-10T20:07:21.424Z,4.99
2023-03-10T20:09:49.598Z,5.03
2023-03-10T20:12:17.294Z,5.04
2023-03-10T20:14:45.023Z,5.10
2023-03-10T20:17:12.662Z,5.12
2023-03-10T20:19:41.169Z,5.19
2023-03-10T20:22:08.790Z,5.15
2023-03-10T20:24:37.860Z,5.21
2023-03-10T20:27:05.741Z,5.20
2023-03-10T20:29:33.569Z,5.17
2023-03-10T20:32:01.319Z,5.11
2023-03-10T20:34:28.923Z,5.13
2023-03-10T20:36:56.582Z,5.16
2023-03-10T20:39:24.852Z,5.11
2023-03-10T20:41:53.822Z,5.13
2023-03-10T20:44:21.379Z,5.10
2023-03-10T20:46:49.015Z,5.07
2023-03-10T20:49:16.685Z,5.11
2023-03-10T20:51:44.298Z,5.02
2023-03-10T20:54:11.963Z,5.04
2023-03-10T20:56:39.574Z,4.96
2023-03-10T20:59:08.524Z,5.02
2023-03-10T21:01:39.637Z,4.96
2023-03-10T21:04:07.457Z,4.96
2023-03-10T21:06:35.818Z,4.92
2023-03-10T21:09:09.316Z,4.91
2023-03-10T21:11:36.905Z,4.86
2023-03-10T21:14:04.650Z,4.85
2023-03-10T21:16:37.985Z,4.79
2023-03-10T21:19:05.655Z,4.84
2023-03-10T21:21:34.478Z,4.88
2023-03-10T21:24:02.364Z,4.78
2023-03-10T21:26:30.045Z,4.75
2023-03-10T21:28:57.774Z,4.73
2023-03-10T21:31:25.297Z,4.69
2023-03-10T21:33:54.362Z,4.78
2023-03-10T21:36:23.839Z,4.67
2023-03-10T21:38:52.597Z,4.74
2023-03-10T21:41:22.840Z,4.72
2023-03-10T21:43:50.466Z,4.70
2023-03-10T21:46:18.026Z,4.72
2023-03-10T21:48:45.828Z,4.78
2023-03-10T21:51:17.266Z,4.74
2023-03-10T21:53:45.451Z,4.77
2023-03-10T21:56:13.061Z,4.70
2023-03-10T21:58:40.599Z,4.70
2023-03-10T22:01:08.827Z,4.58
2023-03-10T22:03:36.444Z,4.56
2023-03-10T22:06:04.986Z,4.66
2023-03-10T22:08:34.342Z,4.61
2023-03-10T22:11:02.567Z,4.62
2023-03-10T22:13:30.089Z,4.65
2023-03-10T22:16:00.399Z,4.59
2023-03-10T22:18:28.088Z,4.62
2023-03-10T22:20:55.750Z,4.58
2023-03-10T22:23:23.818Z,4.59
2023-03-10T22:25:52.926Z,4.62
2023-03-10T22:28:20.478Z,4.60
2023-03-10T22:30:48.031Z,4.58
2023-03-10T22:33:15.569Z,4.51
2023-03-10T22:35:45.075Z,4.45
2023-03-10T22:38:13.557Z,4.41
2023-03-10T22:40:41.196Z,4.43
2023-03-10T22:43:10.185Z,4.34
2023-03-10T22:49:44.062Z,4.34
2023-03-10T22:52:11.639Z,4.26
2023-03-10T22:54:39.212Z,4.26
2023-03-10T22:57:07.205Z,4.22
2023-03-10T22:59:36.078Z,4.19
2023-03-10T23:02:03.944Z,4.06
2023-03-10T23:04:31.522Z,4.05
2023-03-10T23:06:59.127Z,4.01
2023-03-10T23:09:26.728Z,3.96
2023-03-10T23:11:54.292Z,3.92
2023-03-10T23:14:21.911Z,3.93
2023-03-10T23:16:50.821Z,3.88
2023-03-10T23:19:18.536Z,3.84
2023-03-10T23:21:46.225Z,3.88
2023-03-10T23:24:13.823Z,3.79
2023-03-10T23:26:41.529Z,3.76
2023-03-10T23:29:09.119Z,3.79
2023-03-10T23:31:36.945Z,3.69
2023-03-10T23:34:05.980Z,3.62
2023-03-10T23:36:33.742Z,3.67
2023-03-10T23:39:01.312Z,3.57
2023-03-10T23:41:28.835Z,3.57
2023-03-10T23:43:56.388Z,3.51
2023-03-10T23:46:25.070Z,3.45
2023-03-10T23:48:52.948Z,3.47
2023-03-10T23:51:21.871Z,3.42
2023-03-10T23:53:49.514Z,3.38
2023-03-10T23:56:17.176Z,3.34
2023-03-10T23:58:44.756Z,3.32
